Time;durP1;ratioP1;P1;durP2;ratioP2;P2;SDS_P1;SDS_P2;PMS_P1;PMS_P2;Temp;Humidity;BMP_temperature;BMP_pressure;BME280_temperature;BME280_humidity;BME280_pressure;Samples;Min_cycle;Max_cycle;Signal;HPM_P1;HPM_P2
2021/01/28 00:02:00;;;;;;;;;;;5.20;1.00;;;;;;5072565;28;19994;-64
2021/01/28 00:04:26;;;;;;;;;;;5.20;1.00;;;;;;5072205;28;20347;-65
2021/01/28 00:06:52;;;;;;;;;;;5.20;1.00;;;;;;5072654;28;19925;-65
2021/01/28 00:09:19;;;;;;;;;;;5.20;1.00;;;;;;5072307;28;19978;-65
2021/01/28 00:11:45;;;;;;;;;;;5.20;1.00;;;;;;5072569;28;19998;-65
2021/01/28 00:14:11;;;;;;;;;;;5.20;1.00;;;;;;5071907;28;19924;-64
2021/01/28 00:16:37;;;;;;;;;;;5.20;1.00;;;;;;5072657;28;19974;-65
2021/01/28 00:19:03;;;;;;;;;;;5.20;1.00;;;;;;5071969;28;19924;-65
2021/01/28 00:21:29;;;;;;;;;;;5.20;1.00;;;;;;5072666;28;19928;-64
2021/01/28 00:23:55;;;;;;;;;;;5.20;1.00;;;;;;5072189;28;20454;-66
2021/01/28 00:26:22;;;;;;;;;;;5.20;1.00;;;;;;5072313;28;19924;-65
2021/01/28 00:28:48;;;;;;;;;;;5.20;1.00;;;;;;5072148;28;19924;-65
2021/01/28 00:31:14;;;;;;;;;;;5.20;1.00;;;;;;5071972;28;20435;-65
2021/01/28 00:33:40;;;;;;;;;;;5.20;1.00;;;;;;5072102;28;19936;-64
2021/01/28 00:36:07;;;;;;;;;;;5.20;1.00;;;;;;5072141;28;20282;-64
2021/01/28 00:38:34;;;;;;;;;;;5.20;1.00;;;;;;5072273;28;19928;-65
2021/01/28 00:41:01;;;;;;;;;;;5.20;1.00;;;;;;5071945;28;19928;-64
2021/01/28 00:43:28;;;;;;;;;;;5.20;1.00;;;;;;5073085;28;19924;-65
2021/01/28 00:45:54;;;;;;;;;;;5.20;1.00;;;;;;5110279;22;19977;-69
2021/01/28 00:48:20;;;;;;;;;;;5.20;1.00;;;;;;5112623;28;20371;-69
2021/01/28 00:50:46;;;;;;;;;;;5.20;1.00;;;;;;5112424;28;19928;-69
2021/01/28 00:53:14;;;;;;;;;;;5.10;1.00;;;;;;5112086;28;19931;-69
2021/01/28 00:55:40;;;;;;;;;;;5.20;1.00;;;;;;5115960;28;20387;-69
2021/01/28 00:58:06;;;;;;;;;;;5.20;1.00;;;;;;5116365;28;20135;-69
2021/01/28 01:00:33;;;;;;;;;;;5.20;1.00;;;;;;5116545;28;19924;-70
2021/01/28 01:02:59;;;;;;;;;;;5.10;1.00;;;;;;5116389;28;20291;-67
2021/01/28 01:05:26;;;;;;;;;;;5.10;1.00;;;;;;5116215;28;19923;-67
2021/01/28 01:07:53;;;;;;;;;;;5.20;1.00;;;;;;5116423;28;19923;-69
2021/01/28 01:10:22;;;;;;;;;;;5.10;1.00;;;;;;5116150;28;19927;-69
2021/01/28 01:12:48;;;;;;;;;;;5.10;1.00;;;;;;5116691;28;19935;-70
2021/01/28 01:15:14;;;;;;;;;;;5.10;1.00;;;;;;5115937;28;19924;-70
2021/01/28 01:17:41;;;;;;;;;;;5.10;1.00;;;;;;5116283;28;19927;-69
2021/01/28 01:20:08;;;;;;;;;;;5.20;1.00;;;;;;5116139;28;20038;-67
2021/01/28 01:22:34;;;;;;;;;;;5.20;1.00;;;;;;5116137;28;20030;-67
2021/01/28 01:25:00;;;;;;;;;;;5.20;1.00;;;;;;5115694;28;20341;-67
2021/01/28 01:27:26;;;;;;;;;;;5.20;1.00;;;;;;5115965;28;19950;-67
2021/01/28 01:29:52;;;;;;;;;;;5.20;1.00;;;;;;5116137;28;19973;-67
2021/01/28 01:32:18;;;;;;;;;;;5.20;1.00;;;;;;5115924;28;20375;-67
2021/01/28 01:34:45;;;;;;;;;;;5.20;1.00;;;;;;5115742;28;19931;-68
2021/01/28 01:37:11;;;;;;;;;;;5.20;1.00;;;;;;5115601;28;19925;-67
2021/01/28 01:39:37;;;;;;;;;;;5.20;1.00;;;;;;5115671;28;19977;-69
2021/01/28 01:42:04;;;;;;;;;;;5.20;1.00;;;;;;5116022;28;19981;-67
2021/01/28 01:44:30;;;;;;;;;;;5.20;1.00;;;;;;5115640;28;19924;-67
2021/01/28 01:46:58;;;;;;;;;;;5.20;1.00;;;;;;5115581;28;20001;-68
2021/01/28 01:49:25;;;;;;;;;;;5.20;1.00;;;;;;5115427;28;19924;-68
2021/01/28 01:51:52;;;;;;;;;;;5.20;1.00;;;;;;5115636;28;20348;-68
2021/01/28 01:54:22;;;;;;;;;;;5.20;1.00;;;;;;5114941;28;19924;-68
2021/01/28 01:56:50;;;;;;;;;;;5.20;1.00;;;;;;5115556;28;19923;-68
2021/01/28 01:59:18;;;;;;;;;;;5.20;1.00;;;;;;5115303;28;19928;-68
2021/01/28 02:01:46;;;;;;;;;;;5.30;1.00;;;;;;5115416;28;19932;-68
2021/01/28 02:04:13;;;;;;;;;;;5.20;1.00;;;;;;5115014;28;20380;-68
2021/01/28 02:06:41;;;;;;;;;;;5.20;1.00;;;;;;5114145;28;19931;-68
2021/01/28 02:09:09;;;;;;;;;;;5.20;1.00;;;;;;5115373;28;20362;-68
2021/01/28 02:11:36;;;;;;;;;;;5.20;1.00;;;;;;5115161;28;20014;-68
2021/01/28 02:14:03;;;;;;;;;;;5.30;1.00;;;;;;5114726;28;20388;-68
2021/01/28 02:16:31;;;;;;;;;;;5.20;1.00;;;;;;5114925;28;19946;-68
2021/01/28 02:18:58;;;;;;;;;;;5.20;1.00;;;;;;5115219;28;19935;-67
2021/01/28 02:21:27;;;;;;;;;;;5.20;1.00;;;;;;5115073;28;19928;-67
2021/01/28 02:24:02;;;;;;;;;;;5.20;1.00;;;;;;5114560;28;19949;-67
2021/01/28 02:26:29;;;;;;;;;;;5.20;1.00;;;;;;5115015;28;19931;-67
2021/01/28 02:28:55;;;;;;;;;;;5.20;1.00;;;;;;5114787;28;19969;-67
2021/01/28 02:31:22;;;;;;;;;;;5.20;1.00;;;;;;5114708;28;19923;-67
2021/01/28 02:33:49;;;;;;;;;;;5.20;1.00;;;;;;5114160;28;19947;-67
2021/01/28 02:36:15;;;;;;;;;;;5.20;1.00;;;;;;5114835;28;19931;-68
2021/01/28 02:38:42;;;;;;;;;;;5.20;1.00;;;;;;5114679;28;19924;-68
2021/01/28 02:41:08;;;;;;;;;;;5.10;1.00;;;;;;5114820;28;20016;-68
2021/01/28 02:43:35;;;;;;;;;;;5.10;1.00;;;;;;5114172;28;19923;-68
2021/01/28 02:46:03;;;;;;;;;;;5.10;99.90;;;;;;5114170;28;19931;-68
2021/01/28 02:48:29;;;;;;;;;;;5.10;99.90;;;;;;5114437;28;19931;-68
2021/01/28 02:50:55;;;;;;;;;;;5.10;99.90;;;;;;5115025;28;19930;-68
2021/01/28 02:53:21;;;;;;;;;;;5.10;99.90;;;;;;5115735;28;19928;-68
2021/01/28 02:55:47;;;;;;;;;;;5.00;99.90;;;;;;5114379;28;19924;-68
2021/01/28 02:58:13;;;;;;;;;;;5.00;99.90;;;;;;5114352;28;19927;-68
2021/01/28 03:00:40;;;;;;;;;;;5.00;99.90;;;;;;5114228;28;19923;-68
2021/01/28 03:03:07;;;;;;;;;;;5.00;99.90;;;;;;5113722;28;19928;-68
2021/01/28 03:05:33;;;;;;;;;;;5.00;99.90;;;;;;5114268;28;19969;-68
2021/01/28 03:07:59;;;;;;;;;;;5.00;99.90;;;;;;5114066;28;19981;-68
2021/01/28 03:10:25;;;;;;;;;;;5.00;99.90;;;;;;5114052;28;19928;-68
2021/01/28 03:12:51;;;;;;;;;;;5.00;99.90;;;;;;5113896;28;20355;-68
2021/01/28 03:15:19;;;;;;;;;;;5.00;99.90;;;;;;5113673;28;19925;-68
2021/01/28 03:17:45;;;;;;;;;;;5.00;99.90;;;;;;5113444;28;19931;-68
2021/01/28 03:20:12;;;;;;;;;;;5.00;99.90;;;;;;5114021;28;19928;-68
2021/01/28 03:22:38;;;;;;;;;;;5.00;99.90;;;;;;5113620;28;19924;-68
2021/01/28 03:25:05;;;;;;;;;;;5.00;99.90;;;;;;5113347;28;19924;-67
2021/01/28 03:27:31;;;;;;;;;;;4.90;99.90;;;;;;5113852;28;19923;-67
2021/01/28 03:29:57;;;;;;;;;;;5.00;99.90;;;;;;5113317;28;20260;-67
2021/01/28 03:32:23;;;;;;;;;;;5.00;99.90;;;;;;5113818;28;19928;-67
2021/01/28 03:34:50;;;;;;;;;;;5.00;99.90;;;;;;5113360;28;19924;-67
2021/01/28 03:37:16;;;;;;;;;;;5.00;99.90;;;;;;5113594;28;19935;-67
2021/01/28 03:39:42;;;;;;;;;;;5.00;99.90;;;;;;5113611;28;19924;-67
2021/01/28 03:42:08;;;;;;;;;;;5.00;99.90;;;;;;5113247;28;19970;-68
2021/01/28 03:44:35;;;;;;;;;;;4.90;99.90;;;;;;5112960;28;19981;-67
2021/01/28 03:47:01;;;;;;;;;;;4.90;99.90;;;;;;5112845;28;20432;-68
2021/01/28 03:49:27;;;;;;;;;;;4.90;99.90;;;;;;5113445;28;19924;-68
2021/01/28 03:51:54;;;;;;;;;;;4.90;99.90;;;;;;5113247;28;19923;-68
2021/01/28 03:54:20;;;;;;;;;;;4.90;99.90;;;;;;5112980;28;19924;-68
2021/01/28 03:56:46;;;;;;;;;;;5.00;99.90;;;;;;5113068;28;20390;-68
2021/01/28 03:59:12;;;;;;;;;;;4.90;99.90;;;;;;5112933;28;19924;-67
2021/01/28 04:01:38;;;;;;;;;;;4.90;99.90;;;;;;5113086;28;20392;-68
2021/01/28 04:04:04;;;;;;;;;;;4.90;99.90;;;;;;5112853;28;19924;-68
2021/01/28 04:06:30;;;;;;;;;;;4.90;99.90;;;;;;5113054;28;19924;-68
2021/01/28 04:08:57;;;;;;;;;;;4.90;99.90;;;;;;5112789;28;19931;-68
2021/01/28 04:11:23;;;;;;;;;;;5.00;99.90;;;;;;5112943;28;20295;-68
2021/01/28 04:13:49;;;;;;;;;;;5.00;99.90;;;;;;5112681;28;20008;-68
2021/01/28 04:16:15;;;;;;;;;;;5.00;99.90;;;;;;5113215;28;19931;-68
2021/01/28 04:18:41;;;;;;;;;;;4.90;99.90;;;;;;5112964;28;19932;-68
2021/01/28 04:21:07;;;;;;;;;;;5.00;99.90;;;;;;5112755;28;19984;-68
2021/01/28 04:23:33;;;;;;;;;;;5.00;99.90;;;;;;5112430;28;19928;-68
2021/01/28 04:26:00;;;;;;;;;;;5.00;99.90;;;;;;5112559;28;19923;-68
2021/01/28 04:28:26;;;;;;;;;;;5.10;99.90;;;;;;5112584;28;19928;-68
2021/01/28 04:30:52;;;;;;;;;;;5.10;99.90;;;;;;5112517;28;19928;-68
2021/01/28 04:33:18;;;;;;;;;;;5.10;99.90;;;;;;5112510;28;19931;-68
2021/01/28 04:35:44;;;;;;;;;;;5.10;99.90;;;;;;5112843;28;19923;-68
2021/01/28 04:38:10;;;;;;;;;;;5.10;99.90;;;;;;5113069;28;19924;-68
2021/01/28 04:40:37;;;;;;;;;;;5.10;99.90;;;;;;5113878;28;19935;-68
2021/01/28 04:43:07;;;;;;;;;;;5.10;99.90;;;;;;5112896;28;19923;-68
2021/01/28 04:45:33;;;;;;;;;;;5.00;99.90;;;;;;5112654;28;19924;-68
2021/01/28 04:48:01;;;;;;;;;;;5.00;99.90;;;;;;5112613;28;19931;-68
2021/01/28 04:50:29;;;;;;;;;;;5.00;99.90;;;;;;5112729;28;19924;-68
2021/01/28 04:52:57;;;;;;;;;;;5.00;99.90;;;;;;5112355;28;19924;-68
2021/01/28 04:55:29;;;;;;;;;;;5.00;99.90;;;;;;5112155;28;19923;-68
2021/01/28 04:57:55;;;;;;;;;;;5.00;99.90;;;;;;5112757;28;19927;-68
2021/01/28 05:00:21;;;;;;;;;;;4.90;99.90;;;;;;5112473;28;20361;-68
2021/01/28 05:02:50;;;;;;;;;;;4.90;99.90;;;;;;5112555;28;19923;-68
2021/01/28 05:05:16;;;;;;;;;;;4.90;99.90;;;;;;5112336;28;20344;-68
2021/01/28 05:07:42;;;;;;;;;;;4.90;99.90;;;;;;5112537;28;19927;-68
2021/01/28 05:10:11;;;;;;;;;;;4.90;99.90;;;;;;5112200;28;20417;-68
2021/01/28 05:12:37;;;;;;;;;;;4.80;99.90;;;;;;5112625;28;19923;-68
2021/01/28 05:15:14;;;;;;;;;;;4.80;99.90;;;;;;5112469;28;19935;-68
2021/01/28 05:17:41;;;;;;;;;;;4.80;99.90;;;;;;5102028;28;19924;-68
2021/01/28 05:20:10;;;;;;;;;;;4.70;99.90;;;;;;5091829;28;19924;-68
2021/01/28 05:22:39;;;;;;;;;;;4.60;99.90;;;;;;5091588;28;19969;-68
2021/01/28 05:25:11;;;;;;;;;;;4.60;99.90;;;;;;5091535;28;19924;-68
2021/01/28 05:27:38;;;;;;;;;;;4.60;99.90;;;;;;5092195;28;19935;-68
2021/01/28 05:30:06;;;;;;;;;;;4.60;99.90;;;;;;5091942;28;19950;-68
2021/01/28 05:32:37;;;;;;;;;;;4.60;99.90;;;;;;5096996;28;19993;-68
2021/01/28 05:35:14;;;;;;;;;;;4.50;99.90;;;;;;5096666;28;19924;-68
2021/01/28 05:37:40;;;;;;;;;;;4.50;99.90;;;;;;5091961;28;19931;-70
2021/01/28 05:40:15;;;;;;;;;;;4.50;99.90;;;;;;5095311;28;19974;-71
2021/01/28 05:42:42;;;;;;;;;;;4.40;99.90;;;;;;5101218;28;19945;-70
2021/01/28 05:45:21;;;;;;;;;;;4.40;99.90;;;;;;5103040;28;19924;-70
2021/01/28 05:47:47;;;;;;;;;;;4.40;99.90;;;;;;5095646;28;20380;-70
2021/01/28 05:50:16;;;;;;;;;;;4.30;99.90;;;;;;5094725;28;19924;-70
2021/01/28 05:52:42;;;;;;;;;;;4.30;99.90;;;;;;5095502;28;19950;-69
2021/01/28 05:55:11;;;;;;;;;;;4.30;99.90;;;;;;5094998;28;19924;-69
2021/01/28 05:57:39;;;;;;;;;;;4.30;99.90;;;;;;5095949;28;19924;-69
2021/01/28 06:00:10;;;;;;;;;;;4.30;99.90;;;;;;5094937;28;19970;-71
2021/01/28 06:02:54;;;;;;;;;;;4.30;99.90;;;;;;5094689;28;19932;-71
2021/01/28 06:05:26;;;;;;;;;;;4.30;91.80;;;;;;5094807;28;19924;-71
2021/01/28 06:08:09;;;;;;;;;;;4.20;44.60;;;;;;5094716;28;19924;-70
2021/01/28 06:10:46;;;;;;;;;;;4.20;11.30;;;;;;5094265;28;19985;-70
2021/01/28 06:13:23;;;;;;;;;;;4.20;19.80;;;;;;5094625;28;19932;-70
2021/01/28 06:15:52;;;;;;;;;;;4.20;23.50;;;;;;5094778;28;19924;-70
2021/01/28 06:18:46;;;;;;;;;;;4.20;42.80;;;;;;5094251;28;19924;-70
2021/01/28 06:21:23;;;;;;;;;;;4.10;1.00;;;;;;5094914;28;19928;-70
2021/01/28 06:24:12;;;;;;;;;;;4.20;5.90;;;;;;5093706;28;19939;-69
2021/01/28 06:26:42;;;;;;;;;;;4.20;1.00;;;;;;5094472;28;19924;-72
2021/01/28 06:29:14;;;;;;;;;;;4.10;1.00;;;;;;5090716;28;19931;-71
2021/01/28 06:31:45;;;;;;;;;;;4.10;1.00;;;;;;5093797;28;19924;-70
2021/01/28 06:34:18;;;;;;;;;;;4.10;1.00;;;;;;5092934;28;19925;-71
2021/01/28 06:36:59;;;;;;;;;;;4.00;1.00;;;;;;5093876;28;19928;-69
2021/01/28 06:39:26;;;;;;;;;;;4.00;1.00;;;;;;5092692;28;20331;-66
2021/01/28 06:42:00;;;;;;;;;;;4.00;1.00;;;;;;5093504;28;19928;-67
2021/01/28 06:44:29;;;;;;;;;;;4.00;1.00;;;;;;5093765;28;20376;-69
2021/01/28 06:46:57;;;;;;;;;;;4.10;1.00;;;;;;5093224;28;19931;-67
2021/01/28 06:49:26;;;;;;;;;;;4.00;1.00;;;;;;5093491;28;19928;-67
2021/01/28 06:51:58;;;;;;;;;;;4.00;1.00;;;;;;5092757;28;19931;-69
2021/01/28 06:54:27;;;;;;;;;;;4.00;1.00;;;;;;5092933;28;20380;-69
2021/01/28 06:56:56;;;;;;;;;;;4.00;1.00;;;;;;5093749;28;20342;-70
2021/01/28 06:59:26;;;;;;;;;;;4.00;1.00;;;;;;5092897;28;19924;-69
2021/01/28 07:01:56;;;;;;;;;;;3.90;1.00;;;;;;5093404;28;19924;-69
2021/01/28 07:04:24;;;;;;;;;;;3.90;1.00;;;;;;5092912;28;19924;-70
2021/01/28 07:06:52;;;;;;;;;;;3.90;1.00;;;;;;5092956;28;19924;-70
2021/01/28 07:09:25;;;;;;;;;;;4.00;1.00;;;;;;5092825;28;19931;-69
2021/01/28 07:11:53;;;;;;;;;;;4.00;1.00;;;;;;5093347;28;19924;-69
2021/01/28 07:14:20;;;;;;;;;;;3.90;1.00;;;;;;5094513;28;19969;-68
2021/01/28 07:16:52;;;;;;;;;;;4.00;1.00;;;;;;5113131;28;20356;-69
2021/01/28 07:19:20;;;;;;;;;;;4.00;1.00;;;;;;5112845;28;19977;-70
2021/01/28 07:21:48;;;;;;;;;;;4.00;1.00;;;;;;5113325;28;19924;-69
2021/01/28 07:24:26;;;;;;;;;;;3.90;1.00;;;;;;5112944;28;19971;-69
2021/01/28 07:26:54;;;;;;;;;;;3.90;1.00;;;;;;5113128;28;20337;-69
2021/01/28 07:29:39;;;;;;;;;;;3.90;1.00;;;;;;5112673;28;19931;-69
2021/01/28 07:32:06;;;;;;;;;;;4.00;1.00;;;;;;5096404;28;19977;-71
2021/01/28 07:34:32;;;;;;;;;;;3.90;1.00;;;;;;5090146;28;20044;-69
2021/01/28 07:37:24;;;;;;;;;;;3.90;1.00;;;;;;5092373;28;19928;-69
2021/01/28 07:39:51;;;;;;;;;;;3.90;1.00;;;;;;5092132;28;19924;-68
2021/01/28 07:42:28;;;;;;;;;;;3.90;1.00;;;;;;5092100;28;19969;-68
2021/01/28 07:44:55;;;;;;;;;;;3.90;1.00;;;;;;5092120;28;20011;-68
2021/01/28 07:47:48;;;;;;;;;;;3.90;99.90;;;;;;5092259;28;20073;-68
2021/01/28 07:50:20;;;;;;;;;;;3.80;1.00;;;;;;5091931;28;19924;-68
2021/01/28 07:52:46;;;;;;;;;;;3.80;99.90;;;;;;5091994;28;20009;-68
2021/01/28 07:55:31;;;;;;;;;;;3.80;99.90;;;;;;5091799;28;19924;-68
2021/01/28 07:57:58;;;;;;;;;;;3.90;1.00;;;;;;5092349;28;20380;-69
2021/01/28 08:00:24;;;;;;;;;;;4.00;1.00;;;;;;5092002;28;19928;-69
2021/01/28 08:03:00;;;;;;;;;;;4.00;1.00;;;;;;5092220;28;19924;-69
2021/01/28 08:05:26;;;;;;;;;;;4.00;99.90;;;;;;5091388;28;19931;-69
2021/01/28 08:08:03;;;;;;;;;;;4.00;99.90;;;;;;5092234;28;19924;-72
2021/01/28 08:10:31;;;;;;;;;;;4.00;99.90;;;;;;5091439;28;20027;-73
2021/01/28 08:12:59;;;;;;;;;;;4.00;99.90;;;;;;5091908;28;19925;-73
2021/01/28 08:15:27;;;;;;;;;;;3.90;99.90;;;;;;5091758;28;19935;-72
2021/01/28 08:18:00;;;;;;;;;;;4.00;99.90;;;;;;5092165;28;19928;-73
2021/01/28 08:20:27;;;;;;;;;;;4.00;99.90;;;;;;5091566;28;20069;-73
2021/01/28 08:22:55;;;;;;;;;;;4.00;99.90;;;;;;5091823;28;19924;-68
2021/01/28 08:25:22;;;;;;;;;;;3.90;99.90;;;;;;5091558;28;19932;-70
2021/01/28 08:27:48;;;;;;;;;;;3.80;99.90;;;;;;5092329;28;19924;-69
2021/01/28 08:30:17;;;;;;;;;;;3.80;99.90;;;;;;5091345;28;20307;-70
2021/01/28 08:32:43;;;;;;;;;;;3.80;99.90;;;;;;5092160;28;19924;-70
2021/01/28 08:35:12;;;;;;;;;;;3.80;99.90;;;;;;5091553;28;19931;-70
2021/01/28 08:37:38;;;;;;;;;;;3.80;99.90;;;;;;5091825;28;19969;-69
2021/01/28 08:40:06;;;;;;;;;;;3.80;99.90;;;;;;5091674;28;19932;-70
2021/01/28 08:42:33;;;;;;;;;;;3.80;99.90;;;;;;5091585;28;20394;-71
2021/01/28 08:45:20;;;;;;;;;;;3.80;99.90;;;;;;5091509;28;19932;-70
2021/01/28 08:47:57;;;;;;;;;;;3.80;99.90;;;;;;5086564;28;19928;-68
2021/01/28 08:50:26;;;;;;;;;;;3.80;99.90;;;;;;5091678;28;19924;-69
2021/01/28 08:52:53;;;;;;;;;;;3.80;99.90;;;;;;5091896;28;19924;-69
2021/01/28 08:55:21;;;;;;;;;;;3.90;99.90;;;;;;5091363;28;19928;-69
2021/01/28 08:57:47;;;;;;;;;;;3.80;99.90;;;;;;5092121;28;19966;-70
2021/01/28 09:00:21;;;;;;;;;;;3.80;99.90;;;;;;5091983;28;19947;-71
2021/01/28 09:02:50;;;;;;;;;;;3.80;99.90;;;;;;5091989;28;19924;-71
2021/01/28 09:05:20;;;;;;;;;;;3.80;99.90;;;;;;5091153;28;19986;-70
2021/01/28 09:07:49;;;;;;;;;;;3.80;99.90;;;;;;5091929;28;19932;-72
2021/01/28 09:10:30;;;;;;;;;;;3.80;99.90;;;;;;5091392;28;20376;-70
2021/01/28 09:13:20;;;;;;;;;;;3.80;99.90;;;;;;5088994;28;19939;-69
2021/01/28 09:15:46;;;;;;;;;;;3.80;99.90;;;;;;5077561;28;19928;-72
2021/01/28 09:18:18;;;;;;;;;;;3.90;99.90;;;;;;5095044;28;19930;-70
2021/01/28 09:20:47;;;;;;;;;;;3.90;99.90;;;;;;5095665;28;19924;-70
2021/01/28 09:26:37;;;;;;;;;;;3.90;99.90;;;;;;5045999;22;20426;-71
2021/01/28 09:29:07;;;;;;;;;;;3.90;99.90;;;;;;5054483;28;20396;-69
2021/01/28 09:31:33;;;;;;;;;;;3.90;99.90;;;;;;5055046;28;19925;-69
2021/01/28 09:34:10;;;;;;;;;;;3.90;99.90;;;;;;5054620;28;19925;-70
2021/01/28 09:36:37;;;;;;;;;;;4.00;99.90;;;;;;5054689;28;19995;-69
2021/01/28 09:39:06;;;;;;;;;;;4.00;99.90;;;;;;5054584;28;19943;-72
2021/01/28 09:41:36;;;;;;;;;;;4.10;99.90;;;;;;5054557;28;19932;-71
2021/01/28 09:44:02;;;;;;;;;;;4.10;99.90;;;;;;5054158;28;20412;-67
2021/01/28 09:46:30;;;;;;;;;;;4.10;99.90;;;;;;5054373;28;19928;-68
2021/01/28 09:48:58;;;;;;;;;;;4.10;99.90;;;;;;5053899;28;20373;-71
2021/01/28 09:51:27;;;;;;;;;;;4.10;99.90;;;;;;5054440;28;19931;-70
2021/01/28 09:54:01;;;;;;;;;;;4.10;99.90;;;;;;5054728;28;19928;-70
2021/01/28 09:56:27;;;;;;;;;;;4.20;99.90;;;;;;5054938;28;19924;-69
2021/01/28 09:58:53;;;;;;;;;;;4.20;99.90;;;;;;5054176;28;19929;-69
2021/01/28 10:01:20;;;;;;;;;;;4.20;99.90;;;;;;5054336;28;19932;-69
2021/01/28 10:03:46;;;;;;;;;;;4.30;99.90;;;;;;5053870;28;20385;-68
2021/01/28 10:06:12;;;;;;;;;;;4.20;99.90;;;;;;5054036;28;20299;-68
2021/01/28 10:08:38;;;;;;;;;;;4.30;99.90;;;;;;5053775;28;20328;-68
2021/01/28 10:11:05;;;;;;;;;;;4.30;99.90;;;;;;5054165;28;19936;-69
2021/01/28 10:13:31;;;;;;;;;;;4.30;99.90;;;;;;5054380;28;19979;-71
2021/01/28 10:15:57;;;;;;;;;;;4.30;99.90;;;;;;5053515;28;19924;-70
2021/01/28 10:18:24;;;;;;;;;;;4.30;99.90;;;;;;5053555;28;19924;-71
2021/01/28 10:20:50;;;;;;;;;;;4.30;72.50;;;;;;5053907;28;19929;-72
2021/01/28 10:23:16;;;;;;;;;;;4.40;32.40;;;;;;5054035;28;19931;-70
2021/01/28 10:25:42;;;;;;;;;;;4.40;29.30;;;;;;5053823;28;19925;-69
2021/01/28 10:28:09;;;;;;;;;;;4.40;12.60;;;;;;5053463;28;19925;-72
2021/01/28 10:30:35;;;;;;;;;;;4.40;13.10;;;;;;5053772;28;19925;-69
2021/01/28 10:33:02;;;;;;;;;;;4.40;72.70;;;;;;5053254;28;20377;-70
2021/01/28 10:35:29;;;;;;;;;;;4.50;91.20;;;;;;5053081;28;20373;-70
2021/01/28 10:37:56;;;;;;;;;;;4.50;52.00;;;;;;5053594;28;19925;-70
2021/01/28 10:40:22;;;;;;;;;;;4.50;40.50;;;;;;5053584;28;19925;-69
2021/01/28 10:42:49;;;;;;;;;;;4.60;1.00;;;;;;5053621;28;19925;-71
2021/01/28 10:45:17;;;;;;;;;;;4.60;1.00;;;;;;5052889;28;19929;-71
2021/01/28 10:47:43;;;;;;;;;;;4.60;1.00;;;;;;5053088;28;19932;-70
2021/01/28 10:50:10;;;;;;;;;;;4.60;1.00;;;;;;5053083;28;19928;-69
2021/01/28 10:52:36;;;;;;;;;;;4.60;1.00;;;;;;5053182;28;19932;-69
2021/01/28 10:55:02;;;;;;;;;;;4.60;1.00;;;;;;5053174;28;19952;-69
2021/01/28 10:57:28;;;;;;;;;;;4.60;1.00;;;;;;5053269;28;19925;-70
2021/01/28 10:59:54;;;;;;;;;;;4.60;1.00;;;;;;5052465;28;19924;-69
2021/01/28 11:02:21;;;;;;;;;;;4.60;1.00;;;;;;5052868;28;19924;-69
2021/01/28 11:04:47;;;;;;;;;;;4.60;1.00;;;;;;5053055;28;19971;-68
2021/01/28 11:07:13;;;;;;;;;;;4.70;1.00;;;;;;5052819;28;19925;-70
2021/01/28 11:09:39;;;;;;;;;;;4.70;1.00;;;;;;5052872;28;19925;-69
2021/01/28 11:12:06;;;;;;;;;;;4.70;5.50;;;;;;5053123;28;19947;-69
2021/01/28 11:14:33;;;;;;;;;;;4.80;1.00;;;;;;5052094;28;19925;-67
2021/01/28 11:17:07;;;;;;;;;;;4.80;1.00;;;;;;5052370;28;19932;-72
2021/01/28 11:19:33;;;;;;;;;;;4.80;1.00;;;;;;5052575;28;20373;-72
2021/01/28 11:21:59;;;;;;;;;;;4.80;1.00;;;;;;5052966;28;19931;-71
2021/01/28 11:24:28;;;;;;;;;;;4.80;1.00;;;;;;5052345;28;19971;-70
2021/01/28 11:26:54;;;;;;;;;;;4.80;1.00;;;;;;5052451;28;19924;-71
2021/01/28 11:29:24;;;;;;;;;;;4.70;1.00;;;;;;5052098;28;19925;-70
2021/01/28 11:31:50;;;;;;;;;;;4.70;1.00;;;;;;5052459;28;19925;-71
2021/01/28 11:34:16;;;;;;;;;;;4.70;1.00;;;;;;5052274;28;19925;-69
2021/01/28 11:36:43;;;;;;;;;;;4.70;1.00;;;;;;5052420;28;19932;-74
2021/01/28 11:39:12;;;;;;;;;;;4.80;1.00;;;;;;5052097;28;19970;-74
2021/01/28 11:41:38;;;;;;;;;;;4.70;1.00;;;;;;5052105;28;20308;-71
2021/01/28 11:44:04;;;;;;;;;;;4.70;1.00;;;;;;5052032;28;19936;-71
2021/01/28 11:46:30;;;;;;;;;;;4.70;1.00;;;;;;5052349;28;19932;-68
2021/01/28 11:48:56;;;;;;;;;;;4.70;1.00;;;;;;5052737;28;20304;-68
2021/01/28 11:51:22;;;;;;;;;;;4.60;1.00;;;;;;5053057;28;19925;-69
2021/01/28 11:53:49;;;;;;;;;;;4.60;1.00;;;;;;5053145;28;19932;-69
2021/01/28 11:56:15;;;;;;;;;;;4.60;1.00;;;;;;5052382;28;19931;-69
2021/01/28 11:58:41;;;;;;;;;;;4.60;1.00;;;;;;5053164;28;19937;-72
2021/01/28 12:01:08;;;;;;;;;;;4.60;1.00;;;;;;5056021;28;19978;-71
2021/01/28 12:03:34;;;;;;;;;;;4.60;1.00;;;;;;5052882;28;20043;-71
2021/01/28 12:06:00;;;;;;;;;;;4.60;1.00;;;;;;5052542;28;19940;-73
2021/01/28 12:08:28;;;;;;;;;;;4.60;1.00;;;;;;5052316;28;21271;-70
2021/01/28 12:10:54;;;;;;;;;;;4.60;1.00;;;;;;5051851;28;19925;-70
2021/01/28 12:13:21;;;;;;;;;;;4.60;1.00;;;;;;5052318;28;19947;-71
2021/01/28 12:15:47;;;;;;;;;;;4.60;1.00;;;;;;5052599;28;19924;-72
2021/01/28 12:18:13;;;;;;;;;;;4.60;1.00;;;;;;5053402;28;19925;-67
2021/01/28 12:20:39;;;;;;;;;;;4.60;1.00;;;;;;5054861;28;20389;-68
2021/01/28 12:23:05;;;;;;;;;;;4.60;1.00;;;;;;5056393;28;20388;-67
2021/01/28 12:25:31;;;;;;;;;;;4.60;1.00;;;;;;5056658;28;19931;-67
2021/01/28 12:27:58;;;;;;;;;;;4.70;1.00;;;;;;5057928;28;19928;-67
2021/01/28 12:30:25;;;;;;;;;;;4.70;1.00;;;;;;5054161;28;19924;-66
2021/01/28 12:32:52;;;;;;;;;;;4.70;1.00;;;;;;5054374;28;19990;-67
2021/01/28 12:35:18;;;;;;;;;;;4.70;1.00;;;;;;5052735;28;19929;-66
2021/01/28 12:37:44;;;;;;;;;;;4.70;1.00;;;;;;5052319;28;19925;-68
2021/01/28 12:40:12;;;;;;;;;;;4.70;1.00;;;;;;5052926;28;19928;-67
2021/01/28 12:42:38;;;;;;;;;;;4.70;1.00;;;;;;5052505;28;19928;-69
2021/01/28 12:45:06;;;;;;;;;;;4.70;1.00;;;;;;5051368;28;19979;-70
2021/01/28 12:47:32;;;;;;;;;;;4.70;1.00;;;;;;5053810;28;19929;-68
2021/01/28 12:49:58;;;;;;;;;;;4.70;1.00;;;;;;5054442;28;20304;-67
2021/01/28 12:52:24;;;;;;;;;;;4.70;1.00;;;;;;5057730;28;19925;-67
2021/01/28 12:54:51;;;;;;;;;;;4.80;1.00;;;;;;5060041;28;19995;-67
2021/01/28 12:57:17;;;;;;;;;;;4.80;1.00;;;;;;5058222;28;19952;-67
2021/01/28 12:59:45;;;;;;;;;;;4.90;1.00;;;;;;5055987;28;19925;-67
2021/01/28 13:02:12;;;;;;;;;;;4.90;1.00;;;;;;5056202;28;19939;-66
2021/01/28 13:04:38;;;;;;;;;;;5.00;1.00;;;;;;5055536;28;19925;-71
2021/01/28 13:07:04;;;;;;;;;;;5.00;1.00;;;;;;5054990;28;19932;-71
2021/01/28 13:09:30;;;;;;;;;;;5.10;1.00;;;;;;5055310;28;19940;-72
2021/01/28 13:11:56;;;;;;;;;;;5.10;1.00;;;;;;5055673;28;19983;-71
2021/01/28 13:14:22;;;;;;;;;;;5.20;1.00;;;;;;5055496;28;20404;-72
2021/01/28 13:16:48;;;;;;;;;;;5.10;1.00;;;;;;5057842;28;19932;-72
2021/01/28 13:19:15;;;;;;;;;;;5.10;1.00;;;;;;5056698;28;19929;-72
2021/01/28 13:21:41;;;;;;;;;;;5.00;99.90;;;;;;5057586;28;19929;-72
2021/01/28 13:24:07;;;;;;;;;;;5.00;99.90;;;;;;5057026;28;20441;-72
2021/01/28 13:26:33;;;;;;;;;;;5.00;99.90;;;;;;5056060;28;19925;-71
2021/01/28 13:28:59;;;;;;;;;;;5.00;99.90;;;;;;5057801;28;19925;-72
2021/01/28 13:31:25;;;;;;;;;;;5.00;99.90;;;;;;5057358;28;19925;-70
2021/01/28 13:33:51;;;;;;;;;;;5.00;99.90;;;;;;5059751;28;19932;-70
2021/01/28 13:36:18;;;;;;;;;;;5.10;99.90;;;;;;5060215;28;19940;-71
2021/01/28 13:38:45;;;;;;;;;;;5.00;99.90;;;;;;5059394;28;19929;-72
2021/01/28 13:41:11;;;;;;;;;;;5.00;99.90;;;;;;5059715;28;19978;-72
2021/01/28 13:43:37;;;;;;;;;;;5.00;99.90;;;;;;5060324;28;19928;-72
2021/01/28 13:46:03;;;;;;;;;;;5.00;99.90;;;;;;5059316;28;20369;-72
2021/01/28 13:48:29;;;;;;;;;;;5.00;99.90;;;;;;5059265;28;19952;-70
2021/01/28 13:50:55;;;;;;;;;;;5.00;99.90;;;;;;5057864;28;19925;-70
2021/01/28 13:53:22;;;;;;;;;;;5.00;99.90;;;;;;5059717;28;19982;-71
2021/01/28 13:55:49;;;;;;;;;;;5.00;99.90;;;;;;5057930;28;19925;-71
2021/01/28 13:58:15;;;;;;;;;;;5.00;99.90;;;;;;5058758;28;19970;-72
2021/01/28 14:00:41;;;;;;;;;;;5.00;99.90;;;;;;5058384;28;19925;-72
2021/01/28 14:03:07;;;;;;;;;;;5.00;99.90;;;;;;5054459;28;19932;-72
2021/01/28 14:05:33;;;;;;;;;;;5.00;99.90;;;;;;5054769;28;19931;-72
2021/01/28 14:07:59;;;;;;;;;;;4.90;99.90;;;;;;5054727;28;19932;-72
2021/01/28 14:10:28;;;;;;;;;;;4.90;99.90;;;;;;5054601;28;19929;-72
2021/01/28 14:12:54;;;;;;;;;;;5.00;99.90;;;;;;5056331;28;19986;-71
2021/01/28 14:15:21;;;;;;;;;;;5.00;99.90;;;;;;5055815;28;19924;-70
2021/01/28 14:17:47;;;;;;;;;;;5.00;99.90;;;;;;5055278;28;19978;-71
2021/01/28 14:20:14;;;;;;;;;;;4.90;99.90;;;;;;5053568;28;20396;-68
2021/01/28 14:22:40;;;;;;;;;;;4.90;99.90;;;;;;5054163;28;20007;-67
2021/01/28 14:25:07;;;;;;;;;;;4.90;99.90;;;;;;5053049;28;20005;-71
2021/01/28 14:27:33;;;;;;;;;;;4.90;99.90;;;;;;5053830;28;19925;-72
2021/01/28 14:29:59;;;;;;;;;;;4.90;99.90;;;;;;5053225;28;19925;-71
2021/01/28 14:32:26;;;;;;;;;;;4.90;99.90;;;;;;5053811;28;19925;-72
2021/01/28 14:34:52;;;;;;;;;;;4.90;99.90;;;;;;5053293;28;19929;-71
2021/01/28 14:37:18;;;;;;;;;;;4.90;1.00;;;;;;5053944;28;19931;-71
2021/01/28 14:39:44;;;;;;;;;;;4.90;1.00;;;;;;5053533;28;19925;-71
2021/01/28 14:42:10;;;;;;;;;;;4.90;1.00;;;;;;5053486;28;19932;-72
2021/01/28 14:44:36;;;;;;;;;;;4.90;1.00;;;;;;5053180;28;19925;-72